Time;durP1;ratioP1;P1;durP2;ratioP2;P2;SDS_P1;SDS_P2;PMS_P1;PMS_P2;Temp;Humidity;BMP_temperature;BMP_pressure;BME280_temperature;BME280_humidity;BME280_pressure;Samples;Min_cycle;Max_cycle;Signal;HPM_P1;HPM_P2
2022/01/03 00:00:16;;;;;;;8.40;2.70;;;10.40;99.90;;;11.61;100.00;100020.34;5098458;28;20363;-77
2022/01/03 00:02:44;;;;;;;8.75;2.90;;;10.40;99.90;;;11.72;100.00;100020.50;5096944;28;20379;-77
2022/01/03 00:05:13;;;;;;;10.05;2.63;;;10.50;99.90;;;11.70;100.00;100023.69;5094329;28;20139;-78
2022/01/03 00:08:00;;;;;;;12.60;3.03;;;10.50;99.90;;;11.61;100.00;100029.53;5103616;28;20020;-77
2022/01/03 00:10:26;;;;;;;7.47;2.60;;;10.50;99.90;;;11.63;100.00;100032.75;5095992;28;20040;-76
2022/01/03 00:12:53;;;;;;;11.85;3.90;;;10.50;99.90;;;11.48;100.00;100016.16;5092068;28;20082;-76
2022/01/03 00:15:20;;;;;;;14.80;4.20;;;10.50;99.90;;;11.62;100.00;100033.94;5091577;28;20038;-77
2022/01/03 00:17:48;;;;;;;12.25;3.22;;;10.50;99.90;;;11.64;100.00;100041.97;5109597;28;20079;-75
2022/01/03 00:20:16;;;;;;;10.40;3.50;;;10.50;99.90;;;11.69;100.00;100038.81;5090374;28;20091;-75
2022/01/03 00:23:10;;;;;;;9.63;3.67;;;10.40;99.90;;;11.53;100.00;100033.41;5091520;28;20097;-77
2022/01/03 00:25:51;;;;;;;12.38;3.63;;;10.40;99.90;;;11.60;100.00;100036.31;5079674;28;20384;-76
2022/01/03 00:28:32;;;;;;;15.65;3.95;;;10.40;99.90;;;11.55;100.00;100044.25;5069205;28;20017;-77
2022/01/03 00:30:59;;;;;;;12.23;2.85;;;10.40;99.90;;;11.61;100.00;100046.31;5070842;28;20309;-77
2022/01/03 00:33:27;;;;;;;12.80;4.00;;;10.40;99.90;;;11.58;100.00;100037.88;5055423;28;20356;-76
2022/01/03 00:36:03;;;;;;;10.35;3.15;;;10.40;99.90;;;11.57;100.00;100050.25;5059019;28;20035;-76
2022/01/03 00:38:35;;;;;;;12.68;3.20;;;10.30;99.90;;;11.49;100.00;100056.94;5057032;28;20446;-78
2022/01/03 00:41:04;;;;;;;13.80;3.22;;;10.30;99.90;;;11.36;100.00;100047.97;5058303;28;20068;-77
2022/01/03 00:43:31;;;;;;;15.98;3.35;;;10.30;99.90;;;11.48;100.00;100066.50;5057031;28;20435;-74
2022/01/03 00:45:58;;;;;;;14.68;3.45;;;10.30;99.90;;;11.59;100.00;100062.66;5059552;28;20077;-77
2022/01/03 00:48:25;;;;;;;7.75;3.00;;;10.30;99.90;;;11.41;100.00;100058.81;5059765;28;20029;-77
2022/01/03 00:50:52;;;;;;;12.60;3.47;;;10.20;99.90;;;11.50;100.00;100058.53;5060457;28;20037;-79
2022/01/03 00:53:20;;;;;;;8.23;3.00;;;10.30;99.90;;;11.42;100.00;100062.44;5077492;28;20046;-78
2022/01/03 00:56:14;;;;;;;10.48;2.83;;;10.20;99.90;;;11.42;100.00;100063.25;5078331;28;20033;-76
2022/01/03 00:59:33;;;;;;;11.07;3.13;;;10.20;99.90;;;11.27;100.00;100057.81;5065713;28;20460;-76
2022/01/03 01:02:07;;;;;;;17.02;3.33;;;10.10;99.90;;;11.27;100.00;100058.59;5056412;28;20036;-77
2022/01/03 01:04:45;;;;;;;12.50;3.50;;;10.10;99.90;;;11.33;100.00;100065.50;5059390;28;20108;-76
2022/01/03 01:07:16;;;;;;;16.20;3.50;;;10.10;99.90;;;11.15;100.00;100055.22;5057088;28;20061;-76
2022/01/03 01:09:50;;;;;;;11.40;3.22;;;10.00;99.90;;;11.11;100.00;100063.56;5058929;28;20491;-75
2022/01/03 01:12:21;;;;;;;13.30;3.35;;;10.00;99.90;;;11.15;100.00;100064.41;5060139;28;20158;-76
2022/01/03 01:14:50;;;;;;;13.38;3.67;;;10.10;99.90;;;11.04;100.00;100053.06;5059188;28;20086;-76
2022/01/03 01:17:17;;;;;;;14.15;3.47;;;10.10;99.90;;;11.23;100.00;100080.13;5060815;28;20085;-77
2022/01/03 01:19:44;;;;;;;12.68;3.00;;;10.10;99.90;;;11.08;100.00;100059.53;5058677;28;20037;-76
2022/01/03 01:22:13;;;;;;;15.02;3.40;;;10.00;99.90;;;11.03;100.00;100048.69;5058938;28;20547;-76
2022/01/03 01:24:59;;;;;;;11.45;3.08;;;10.00;99.90;;;11.09;100.00;100083.50;5063706;28;20483;-76
2022/01/03 01:30:11;;;;;;;19.42;3.78;;;10.00;99.90;;;11.13;100.00;100077.97;5078549;28;20510;-78
2022/01/03 01:32:47;;;;;;;15.52;3.15;;;10.00;99.90;;;11.02;100.00;100077.78;5079501;28;20043;-76
2022/01/03 01:35:14;;;;;;;20.88;3.67;;;9.90;99.90;;;10.88;100.00;100074.78;5081357;28;20177;-76
2022/01/03 01:37:45;;;;;;;29.08;5.20;;;9.90;99.90;;;10.83;100.00;100077.06;5083151;28;20487;-78
2022/01/03 01:40:13;;;;;;;19.75;4.05;;;9.80;99.90;;;10.92;100.00;100077.63;5080020;28;20032;-76
2022/01/03 01:42:46;;;;;;;22.98;3.42;;;9.80;99.90;;;10.70;100.00;100087.63;5076375;28;20029;-76
2022/01/03 01:45:19;;;;;;;12.13;3.15;;;9.70;99.90;;;10.69;100.00;100077.63;5077970;28;20403;-75
2022/01/03 01:47:48;;;;;;;14.07;3.05;;;9.70;99.90;;;10.83;100.00;100089.06;5082340;28;20055;-76
2022/01/03 01:50:15;;;;;;;17.58;3.65;;;9.70;99.90;;;10.83;100.00;100093.81;5080722;28;20028;-76
2022/01/03 01:52:48;;;;;;;16.95;3.47;;;9.70;99.90;;;10.89;100.00;100089.53;5082939;28;20029;-75
2022/01/03 01:55:16;;;;;;;16.15;3.60;;;9.70;99.90;;;10.89;100.00;100081.97;5087306;28;20031;-77
2022/01/03 01:58:12;;;;;;;19.65;3.65;;;9.70;99.90;;;10.92;100.00;100092.41;5080579;28;20032;-75
2022/01/03 02:00:57;;;;;;;13.07;3.67;;;9.80;99.90;;;10.94;100.00;100095.66;5078949;28;20467;-79
2022/01/03 02:03:57;;;;;;;17.48;3.58;;;9.80;99.90;;;10.95;100.00;100090.84;5078516;28;20029;-77
2022/01/03 02:06:56;;;;;;;19.60;4.15;;;9.80;99.90;;;11.00;100.00;100098.91;5078336;28;20036;-77
2022/01/03 02:09:52;;;;;;;26.00;3.97;;;9.90;99.90;;;10.97;100.00;100094.09;5077016;28;20109;-77
2022/01/03 02:12:27;;;;;;;17.75;3.30;;;9.90;99.90;;;10.98;100.00;100102.06;5076732;28;20028;-77
2022/01/03 02:14:57;;;;;;;16.63;3.47;;;9.90;99.90;;;11.05;100.00;100109.78;5076013;28;20035;-75
2022/01/03 02:17:26;;;;;;;19.83;3.03;;;9.90;99.90;;;11.05;100.00;100107.78;5073639;28;20025;-78
2022/01/03 02:20:29;;;;;;;17.80;3.47;;;9.90;99.90;;;11.00;100.00;100101.72;5084481;28;20142;-80
2022/01/03 02:22:56;;;;;;;14.38;3.22;;;9.90;99.90;;;11.10;100.00;100113.06;5081624;28;20051;-80
2022/01/03 02:25:26;;;;;;;15.70;3.13;;;9.90;99.90;;;10.99;100.00;100106.50;5078512;28;20107;-78
2022/01/03 02:27:56;;;;;;;12.07;2.83;;;9.90;99.90;;;11.20;100.00;100127.59;5077421;28;20029;-76
2022/01/03 02:30:30;;;;;;;17.30;3.50;;;9.90;99.90;;;11.03;100.00;100115.75;5080456;28;20036;-77
2022/01/03 02:33:04;;;;;;;16.92;3.72;;;9.90;99.90;;;11.03;100.00;100109.34;5085160;28;20082;-78
2022/01/03 02:35:38;;;;;;;21.55;4.63;;;9.90;99.90;;;11.09;100.00;100105.06;5082778;28;20097;-77
2022/01/03 02:38:05;;;;;;;17.98;3.65;;;9.90;99.90;;;10.99;100.00;100114.06;5081036;28;20024;-76
2022/01/03 02:40:31;;;;;;;13.35;3.22;;;9.90;99.90;;;11.08;100.00;100109.00;5079542;28;20055;-77
2022/01/03 02:42:57;;;;;;;20.45;3.47;;;9.90;99.90;;;10.98;100.00;100109.69;5084715;28;20028;-79
2022/01/03 02:45:26;;;;;;;17.00;2.75;;;9.90;99.90;;;11.14;100.00;100106.72;5085564;28;20545;-77
2022/01/03 02:48:01;;;;;;;16.67;3.15;;;10.00;99.90;;;11.01;100.00;100104.13;5078485;28;20024;-78
2022/01/03 02:50:32;;;;;;;17.58;3.42;;;10.00;99.90;;;10.96;100.00;100095.25;5077943;28;20032;-76
2022/01/03 02:53:00;;;;;;;17.38;3.45;;;9.90;99.90;;;11.00;100.00;100102.53;5077178;28;20051;-76
2022/01/03 02:55:35;;;;;;;19.02;4.25;;;9.90;99.90;;;10.98;100.00;100106.88;5075043;28;20055;-77
2022/01/03 02:58:07;;;;;;;19.05;3.47;;;9.90;99.90;;;11.00;100.00;100116.50;5075007;28;20047;-77
2022/01/03 03:00:48;;;;;;;16.23;2.95;;;9.90;99.90;;;10.94;100.00;100100.41;5075606;28;20020;-77
2022/01/03 03:03:22;;;;;;;13.68;3.47;;;9.90;99.90;;;10.91;100.00;100103.97;5076389;28;20028;-75
2022/01/03 03:05:51;;;;;;;18.10;2.85;;;9.90;99.90;;;11.01;100.00;100103.34;5076349;28;20558;-76
2022/01/03 03:08:18;;;;;;;19.85;3.33;;;9.90;99.90;;;11.04;99.76;100125.72;5074425;28;20031;-77
2022/01/03 03:10:45;;;;;;;11.15;2.22;;;9.90;99.90;;;11.06;99.51;100114.19;5080643;28;20028;-76
2022/01/03 03:13:13;;;;;;;16.63;2.70;;;9.90;99.90;;;11.04;99.98;100125.72;5076923;28;20131;-77
2022/01/03 03:15:42;;;;;;;16.08;3.10;;;9.90;99.90;;;11.02;100.00;100128.09;5078315;28;20368;-77
2022/01/03 03:18:09;;;;;;;15.80;2.70;;;9.90;99.90;;;10.89;99.39;100118.28;5082157;28;20036;-81
2022/01/03 03:20:36;;;;;;;19.52;3.42;;;9.90;99.90;;;11.02;99.47;100127.28;5076248;28;20495;-76
2022/01/03 03:23:03;;;;;;;20.85;3.28;;;9.90;99.90;;;10.89;99.22;100109.09;5077376;28;20404;-75
2022/01/03 03:25:34;;;;;;;19.45;3.33;;;9.90;99.90;;;11.01;98.99;100112.50;5067535;28;20017;-76
2022/01/03 03:28:07;;;;;;;25.13;4.75;;;9.80;99.90;;;11.01;98.70;100120.88;5055765;28;20086;-77
2022/01/03 03:30:47;;;;;;;22.05;3.38;;;9.80;99.90;;;11.02;98.17;100128.09;5057158;28;20075;-75
2022/01/03 03:33:22;;;;;;;19.92;3.05;;;9.80;99.90;;;11.03;97.94;100126.94;5057011;28;20043;-78
2022/01/03 03:35:52;;;;;;;19.38;3.40;;;9.80;99.90;;;10.94;98.29;100129.16;5054741;28;20025;-78
2022/01/03 03:38:23;;;;;;;13.90;2.95;;;9.80;99.90;;;10.94;98.36;100122.78;5056497;28;20099;-76
2022/01/03 03:40:50;;;;;;;16.27;2.50;;;9.70;99.90;;;10.81;99.06;100135.31;5060100;28;20017;-78
2022/01/03 03:43:17;;;;;;;20.50;4.10;;;9.70;99.90;;;10.83;98.62;100132.94;5063214;28;20052;-78
2022/01/03 03:45:45;;;;;;;13.52;3.20;;;9.70;99.90;;;10.83;98.12;100133.75;5061161;28;20022;-78
2022/01/03 03:48:12;;;;;;;13.55;2.90;;;9.70;99.90;;;10.74;98.59;100133.19;5057627;28;20379;-77
2022/01/03 03:50:39;;;;;;;15.48;3.08;;;9.70;99.90;;;10.67;99.30;100129.47;5058722;28;20029;-76
2022/01/03 03:53:09;;;;;;;17.90;3.30;;;9.70;99.90;;;10.81;98.68;100146.47;5057487;28;20017;-76
2022/01/03 03:55:35;;;;;;;17.85;3.85;;;9.60;99.90;;;10.72;98.81;100143.94;5056196;28;20048;-77
2022/01/03 03:58:04;;;;;;;15.27;2.47;;;9.70;99.90;;;10.80;99.00;100144.84;5058506;28;20029;-77
2022/01/03 04:00:33;;;;;;;17.40;2.75;;;9.60;99.90;;;10.79;98.34;100135.66;5058149;28;20032;-77
2022/01/03 04:02:59;;;;;;;21.35;3.70;;;9.70;99.90;;;10.87;98.52;100123.47;5054076;28;20116;-77
2022/01/03 04:05:26;;;;;;;16.88;2.78;;;9.70;99.90;;;11.01;97.45;100145.25;5061182;28;20021;-78
2022/01/03 04:07:52;;;;;;;13.07;2.53;;;9.70;99.90;;;11.13;97.22;100156.22;5060772;28;20033;-80
2022/01/03 04:10:18;;;;;;;17.20;3.22;;;9.70;99.90;;;10.83;97.73;100135.72;5080228;28;20036;-76
2022/01/03 04:12:46;;;;;;;16.00;2.92;;;9.80;99.90;;;10.98;96.67;100132.81;5062776;28;20025;-77
2022/01/03 04:15:13;;;;;;;15.20;3.22;;;9.80;99.90;;;10.87;97.32;100143.00;5059795;28;20057;-76
2022/01/03 04:17:48;;;;;;;20.80;3.22;;;9.80;99.90;;;11.02;97.25;100142.06;5059653;28;20037;-78
2022/01/03 04:20:18;;;;;;;13.70;2.50;;;9.80;99.90;;;10.98;96.99;100157.19;5059550;28;20037;-76
2022/01/03 04:22:50;;;;;;;15.45;2.55;;;9.70;99.90;;;11.04;97.24;100148.09;5059926;28;20029;-77
2022/01/03 04:25:17;;;;;;;11.95;2.70;;;9.80;99.90;;;10.89;98.14;100146.22;5062211;28;20047;-76
2022/01/03 04:27:43;;;;;;;14.68;2.58;;;9.80;99.90;;;10.90;96.97;100139.47;5060383;28;20079;-76
2022/01/03 04:30:15;;;;;;;12.07;2.15;;;9.80;99.90;;;10.94;97.20;100142.31;5059473;28;20391;-78
2022/01/03 04:32:41;;;;;;;14.50;3.30;;;9.90;99.90;;;10.93;97.13;100147.09;5057126;28;20040;-78
2022/01/03 04:35:08;;;;;;;17.08;2.70;;;9.80;99.90;;;11.01;96.41;100143.25;5060300;28;20025;-77
2022/01/03 04:37:33;;;;;;;15.73;2.50;;;9.80;99.90;;;10.93;97.08;100135.94;5059912;28;20037;-78
2022/01/03 04:39:59;;;;;;;19.38;2.33;;;9.80;99.90;;;10.92;97.52;100139.91;5059976;28;20036;-76
2022/01/03 04:42:25;;;;;;;12.02;2.50;;;9.80;99.90;;;10.95;97.22;100138.34;5059622;28;20025;-76
2022/01/03 04:44:51;;;;;;;12.88;3.03;;;9.80;99.90;;;10.96;97.50;100135.19;5057989;28;20028;-76
2022/01/03 04:47:17;;;;;;;18.70;2.95;;;9.70;99.90;;;10.88;97.61;100133.47;5062575;28;20025;-78
2022/01/03 04:49:56;;;;;;;13.38;2.70;;;9.80;99.90;;;10.95;97.65;100129.94;5058048;28;20529;-78
2022/01/03 04:52:25;;;;;;;17.88;3.20;;;9.80;99.90;;;10.92;97.65;100127.91;5059556;28;20032;-77
2022/01/03 04:54:52;;;;;;;24.95;3.50;;;9.70;99.90;;;10.95;97.73;100125.19;5061789;28;20029;-78
2022/01/03 04:57:21;;;;;;;14.93;2.80;;;9.70;99.90;;;10.90;97.21;100119.91;5059594;28;20055;-78
2022/01/03 04:59:47;;;;;;;14.50;3.08;;;9.70;99.90;;;10.86;97.89;100123.81;5061508;28;20064;-78
2022/01/03 05:02:13;;;;;;;16.05;3.25;;;9.70;99.90;;;10.80;97.80;100128.09;5059163;28;20497;-77
2022/01/03 05:04:42;;;;;;;19.67;2.92;;;9.60;99.90;;;10.80;98.30;100126.13;5058244;28;20061;-77
2022/01/03 05:07:11;;;;;;;18.75;3.63;;;9.60;99.90;;;10.81;98.12;100130.53;5057651;28;20040;-78
2022/01/03 05:09:37;;;;;;;15.60;2.85;;;9.60;99.90;;;10.78;98.54;100120.09;5057791;28;20033;-78
2022/01/03 05:12:05;;;;;;;9.93;3.05;;;9.70;99.90;;;10.78;98.73;100122.09;5061730;28;20032;-78
2022/01/03 05:14:34;;;;;;;13.15;2.33;;;9.60;99.90;;;10.76;98.51;100124.44;5060033;28;20024;-77
2022/01/03 05:17:00;;;;;;;21.60;2.78;;;9.60;99.90;;;10.68;99.27;100131.09;5058352;28;20048;-76
2022/01/03 05:19:26;;;;;;;19.55;2.90;;;9.70;99.90;;;10.63;99.48;100123.03;5054070;28;20040;-76
2022/01/03 05:21:52;;;;;;;15.82;2.75;;;9.60;99.90;;;10.63;99.41;100128.59;5053859;28;20099;-80
2022/01/03 05:24:21;;;;;;;20.33;3.30;;;9.60;99.90;;;10.63;99.83;100123.81;5054330;28;20111;-78
2022/01/03 05:26:48;;;;;;;20.75;3.05;;;9.60;99.90;;;10.60;99.67;100121.75;5063331;28;20035;-78
2022/01/03 05:29:17;;;;;;;20.58;2.88;;;9.50;99.90;;;10.61;99.94;100120.59;5056838;28;20041;-78
2022/01/03 05:31:43;;;;;;;17.80;3.25;;;9.50;99.90;;;10.55;99.69;100117.31;5056815;28;20045;-79
2022/01/03 05:34:09;;;;;;;15.40;2.63;;;9.50;99.90;;;10.59;99.80;100123.72;5035594;28;20068;-77
2022/01/03 05:36:35;;;;;;;18.25;2.97;;;9.40;99.90;;;10.46;100.00;100124.31;5035198;28;20130;-77
2022/01/03 05:39:01;;;;;;;21.20;3.03;;;9.40;99.90;;;10.66;99.64;100119.47;5035023;28;20045;-78
2022/01/03 05:41:29;;;;;;;19.48;3.25;;;9.40;99.90;;;10.57;100.00;100122.50;5035078;28;20025;-78
2022/01/03 05:43:56;;;;;;;23.42;3.13;;;9.40;99.90;;;10.51;100.00;100112.81;5035183;28;20022;-78
2022/01/03 05:46:23;;;;;;;22.27;3.40;;;9.50;99.90;;;10.74;99.70;100122.03;5034867;28;20108;-78
2022/01/03 05:48:48;;;;;;;17.65;2.70;;;9.50;99.90;;;10.67;99.17;100124.69;5035052;28;20032;-77
2022/01/03 05:51:14;;;;;;;13.13;3.63;;;9.60;99.90;;;10.73;99.42;100120.41;5033852;28;20436;-77
2022/01/03 05:53:40;;;;;;;16.23;2.65;;;9.60;99.90;;;10.74;98.38;100110.84;5034902;28;20040;-76
2022/01/03 05:56:06;;;;;;;15.82;2.90;;;9.60;99.90;;;10.68;98.76;100117.13;5035482;28;20030;-77
2022/01/03 05:58:32;;;;;;;12.10;2.53;;;9.60;99.90;;;10.71;98.85;100114.38;5035523;28;20539;-79
2022/01/03 06:01:02;;;;;;;26.27;3.42;;;9.60;99.90;;;10.67;98.86;100116.31;5050193;28;20021;-78
2022/01/03 06:03:34;;;;;;;14.52;2.10;;;9.60;99.90;;;10.80;98.27;100112.16;5039219;28;20018;-75
2022/01/03 06:08:29;;;;;;;11.18;2.83;;;9.50;99.90;;;10.71;98.72;100099.59;5035485;28;20048;-78
2022/01/03 06:10:55;;;;;;;15.23;2.45;;;9.60;99.90;;;10.72;98.59;100102.06;5034979;28;20480;-76
2022/01/03 06:13:24;;;;;;;16.80;2.92;;;9.50;99.90;;;10.58;98.80;100101.78;5034360;28;20037;-76
2022/01/03 06:15:51;;;;;;;16.60;2.45;;;9.50;99.90;;;10.66;98.48;100100.72;5034249;28;20059;-77
2022/01/03 06:18:19;;;;;;;17.92;3.72;;;9.50;99.90;;;10.74;98.04;100093.28;5034686;28;20037;-78
2022/01/03 06:20:49;;;;;;;12.80;2.40;;;9.60;99.90;;;10.74;97.92;100096.88;5035002;28;20088;-76
2022/01/03 06:23:19;;;;;;;16.50;2.92;;;9.60;99.90;;;10.74;97.84;100093.28;5032605;28;20076;-76
2022/01/03 06:25:48;;;;;;;12.40;2.65;;;9.60;99.90;;;10.79;97.73;100087.41;5057918;28;20097;-78
2022/01/03 06:28:14;;;;;;;18.95;3.83;;;9.60;99.90;;;10.69;97.37;100080.41;5073232;28;20048;-78
2022/01/03 06:30:43;;;;;;;19.27;2.80;;;9.70;99.90;;;10.82;96.90;100087.44;5073242;28;20040;-77
2022/01/03 06:33:11;;;;;;;16.65;2.42;;;9.70;99.90;;;10.70;97.44;100075.66;5074562;28;20482;-78
2022/01/03 06:35:38;;;;;;;14.88;2.78;;;9.70;99.90;;;10.78;97.45;100077.41;5074462;28;20115;-78
2022/01/03 06:38:05;;;;;;;14.77;2.83;;;9.60;99.90;;;10.64;98.01;100083.53;5072823;28;20057;-78
2022/01/03 06:40:37;;;;;;;16.25;4.30;;;9.70;99.90;;;10.84;97.17;100076.72;5073986;28;20028;-77
2022/01/03 06:43:03;;;;;;;20.25;3.88;;;9.60;99.90;;;10.80;97.45;100087.00;5073702;28;20028;-78
2022/01/03 06:45:29;;;;;;;11.95;2.45;;;9.60;99.90;;;10.71;97.75;100089.25;5073727;28;20043;-78
2022/01/03 06:47:56;;;;;;;17.13;2.72;;;9.60;99.90;;;10.75;97.93;100087.34;5073488;28;20110;-78
2022/01/03 06:50:22;;;;;;;17.48;3.45;;;9.60;99.90;;;10.69;97.84;100085.22;5073179;28;20037;-79
2022/01/03 06:52:48;;;;;;;16.83;2.60;;;9.60;99.90;;;10.77;97.85;100084.16;5072172;28;20499;-79
2022/01/03 06:55:17;;;;;;;19.25;3.00;;;9.70;99.90;;;10.74;97.92;100088.50;5072442;28;20024;-76
2022/01/03 06:57:43;;;;;;;15.98;2.58;;;9.60;99.90;;;10.74;98.30;100094.09;5074034;28;20028;-78
2022/01/03 07:00:10;;;;;;;18.88;4.13;;;9.70;99.90;;;10.72;98.48;100090.88;5073491;28;20059;-78
2022/01/03 07:02:36;;;;;;;17.75;2.90;;;9.60;99.90;;;10.77;97.92;100096.13;5073426;28;20036;-77
2022/01/03 07:05:05;;;;;;;14.02;2.30;;;9.60;99.90;;;10.88;98.00;100094.34;5072168;28;20502;-76
2022/01/03 07:07:31;;;;;;;17.23;2.88;;;9.60;99.90;;;10.80;98.11;100102.97;5082186;28;20103;-78
2022/01/03 07:09:58;;;;;;;19.05;3.63;;;9.60;99.90;;;10.74;98.80;100094.09;5073675;28;20135;-81
2022/01/03 07:12:23;;;;;;;17.30;3.70;;;9.60;99.90;;;10.85;98.06;100097.84;5072168;28;20092;-80
2022/01/03 07:20:09;;;;;;;16.33;2.33;;;9.70;99.90;;;10.88;97.95;100097.13;5073616;28;20063;-80
2022/01/03 07:22:40;;;;;;;11.35;2.20;;;9.70;99.90;;;10.96;97.81;100096.06;5072559;28;20059;-77
2022/01/03 07:25:09;;;;;;;16.50;3.15;;;9.80;99.90;;;10.90;98.09;100100.34;5082583;28;20017;-78
2022/01/03 07:27:37;;;;;;;15.88;2.53;;;9.80;99.90;;;10.91;97.92;100101.97;5053578;28;20100;-75
2022/01/03 07:30:05;;;;;;;14.48;2.50;;;9.70;99.90;;;10.80;98.29;100103.78;5054382;28;20024;-77
2022/01/03 07:32:31;;;;;;;15.52;2.35;;;9.80;99.90;;;10.91;98.26;100101.97;5053680;28;20029;-78
2022/01/03 07:35:00;;;;;;;17.08;3.17;;;9.80;99.90;;;11.04;96.94;100099.78;5053563;28;20388;-78
2022/01/03 07:37:26;;;;;;;17.20;3.00;;;9.80;99.90;;;11.07;97.36;100097.06;5053570;28;20021;-77
2022/01/03 07:39:56;;;;;;;16.17;3.25;;;9.80;99.90;;;11.01;97.58;100090.16;5054540;28;20035;-78
2022/01/03 07:42:27;;;;;;;18.67;2.63;;;9.80;99.90;;;10.82;98.46;100086.66;5055660;28;20120;-78
2022/01/03 07:44:53;;;;;;;13.57;2.60;;;9.80;99.90;;;10.97;98.26;100094.91;5059827;28;20088;-78
2022/01/03 07:47:19;;;;;;;20.38;2.67;;;9.80;99.90;;;11.00;97.65;100085.75;5060462;28;20061;-78
2022/01/03 07:49:48;;;;;;;18.23;3.17;;;9.80;99.90;;;10.95;97.89;100083.25;5061515;28;20097;-81
2022/01/03 07:52:14;;;;;;;13.10;3.33;;;9.70;99.90;;;10.94;98.18;100080.84;5060573;28;20551;-80
2022/01/03 07:54:43;;;;;;;17.27;3.05;;;9.70;99.90;;;10.78;98.91;100089.38;5060035;28;20032;-79
2022/01/03 07:57:12;;;;;;;29.88;4.18;;;9.70;99.90;;;10.82;98.76;100081.06;5058441;28;20444;-76
2022/01/03 07:59:38;;;;;;;22.35;3.60;;;9.70;99.90;;;10.84;98.91;100081.47;5066163;28;20029;-78
2022/01/03 08:02:04;;;;;;;20.20;2.85;;;9.70;99.90;;;10.91;99.00;100098.38;5080034;28;20024;-78
2022/01/03 08:04:30;;;;;;;13.10;2.63;;;9.80;99.90;;;10.90;99.02;100097.56;5079540;28;20035;-81
2022/01/03 08:06:59;;;;;;;16.60;3.00;;;9.80;99.90;;;11.03;98.10;100095.38;5078261;28;20090;-80
2022/01/03 08:09:28;;;;;;;17.60;2.90;;;9.80;99.90;;;11.13;97.04;100080.78;5077681;28;20025;-80
2022/01/03 08:11:53;;;;;;;11.77;2.45;;;9.80;99.90;;;11.04;97.71;100088.63;5076759;28;20566;-78
2022/01/03 08:14:19;;;;;;;15.30;2.10;;;9.80;99.90;;;11.14;96.71;100085.19;5077812;28;20070;-80
2022/01/03 08:16:45;;;;;;;13.75;2.83;;;9.90;99.90;;;11.06;97.28;100081.47;5089583;22;20060;-78
2022/01/03 08:19:11;;;;;;;18.08;3.00;;;9.90;99.90;;;11.13;96.58;100083.56;5056603;28;20036;-78
2022/01/03 08:21:40;;;;;;;15.75;2.78;;;10.00;99.90;;;11.25;96.39;100074.97;5056200;28;20040;-79
2022/01/03 08:24:06;;;;;;;13.55;2.83;;;10.00;99.90;;;11.27;96.58;100080.19;5056818;28;20074;-80
2022/01/03 08:26:36;;;;;;;17.63;2.35;;;10.10;99.90;;;11.32;96.57;100086.25;5067234;28;20368;-80
2022/01/03 08:29:05;;;;;;;16.17;3.20;;;10.10;99.90;;;11.29;96.88;100083.41;5081421;28;20024;-79
2022/01/03 08:31:32;;;;;;;15.65;2.30;;;10.10;99.90;;;11.31;97.27;100086.63;5098369;28;20077;-80
2022/01/03 08:33:57;;;;;;;17.98;3.35;;;10.20;99.90;;;11.11;97.75;100092.31;5097085;28;20035;-79
2022/01/03 08:36:23;;;;;;;15.80;2.95;;;10.10;99.90;;;11.17;99.48;100092.00;5097362;28;20036;-78
2022/01/03 08:38:51;;;;;;;16.02;2.95;;;10.00;99.90;;;11.10;100.00;100085.13;5097135;28;20104;-79
2022/01/03 08:41:17;;;;;;;17.95;2.83;;;9.90;99.90;;;11.16;100.00;100085.59;5078912;28;20028;-80
2022/01/03 08:43:43;;;;;;;16.50;2.75;;;9.80;99.90;;;10.83;100.00;100069.50;5079032;28;20048;-78
2022/01/03 08:46:09;;;;;;;12.60;2.92;;;9.70;99.90;;;10.87;100.00;100080.75;5078403;28;20028;-78
2022/01/03 08:48:35;;;;;;;15.13;2.72;;;9.60;99.90;;;10.89;100.00;100073.59;5078347;28;20371;-78
2022/01/03 08:51:01;;;;;;;15.73;2.90;;;9.60;99.90;;;10.79;100.00;100079.03;5096866;28;20039;-76
2022/01/03 08:53:27;;;;;;;18.42;3.47;;;9.60;99.90;;;10.71;100.00;100077.28;5096655;28;20028;-78
2022/01/03 08:56:00;;;;;;;20.75;2.97;;;9.60;99.90;;;10.76;100.00;100074.16;5097332;28;20149;-78
2022/01/03 08:58:26;;;;;;;13.00;3.05;;;9.60;99.90;;;10.84;100.00;100073.91;5080731;28;20028;-80
2022/01/03 09:00:53;;;;;;;15.38;3.03;;;9.70;99.90;;;11.03;100.00;100079.41;5079895;28;20032;-79
2022/01/03 09:03:19;;;;;;;20.58;3.40;;;9.80;99.90;;;10.93;100.00;100063.28;5098381;28;20097;-80
2022/01/03 09:05:47;;;;;;;19.40;2.97;;;9.80;99.90;;;11.01;100.00;100070.59;5097830;28;20035;-78
2022/01/03 09:08:13;;;;;;;18.95;3.10;;;9.80;99.90;;;10.93;100.00;100063.28;5098489;28;20024;-77
2022/01/03 09:10:42;;;;;;;14.93;2.42;;;9.80;99.90;;;10.95;100.00;100060.09;5078817;28;20114;-79
2022/01/03 09:13:08;;;;;;;10.30;2.67;;;9.90;99.90;;;11.03;100.00;100075.81;5077811;28;20031;-79
2022/01/03 09:15:37;;;;;;;15.65;2.65;;;9.80;99.90;;;10.95;100.00;100065.69;5095014;28;20085;-80
2022/01/03 09:18:04;;;;;;;15.73;2.75;;;9.80;99.90;;;11.02;100.00;100071.41;5097174;28;20054;-78
2022/01/03 09:20:31;;;;;;;16.42;3.08;;;9.80;99.90;;;10.89;100.00;100061.59;5096372;28;20498;-81
2022/01/03 09:23:07;;;;;;;24.45;3.60;;;9.80;99.90;;;10.93;100.00;100059.69;5095811;28;20055;-78
2022/01/03 09:30:51;;;;;;;20.00;3.78;;;9.90;99.90;;;11.17;100.00;100066.84;5075250;28;20063;-77
2022/01/03 09:33:18;;;;;;;18.70;3.55;;;10.00;99.90;;;11.41;100.00;100069.19;5075492;28;20056;-79
2022/01/03 09:35:45;;;;;;;20.80;3.85;;;10.10;99.90;;;11.29;100.00;100058.25;5075579;28;20067;-79
2022/01/03 09:38:11;;;;;;;18.38;3.03;;;10.10;99.90;;;11.31;99.83;100050.28;5058205;28;20338;-77
2022/01/03 09:40:47;;;;;;;13.10;2.75;;;10.20;99.90;;;11.37;100.00;100059.94;5076365;28;20365;-79
2022/01/03 09:43:17;;;;;;;19.65;3.08;;;10.10;99.90;;;11.25;100.00;100052.59;5075735;28;20024;-80
2022/01/03 09:45:48;;;;;;;18.08;3.45;;;10.20;99.90;;;11.39;100.00;100057.59;5057401;28;20025;-79
2022/01/03 09:48:15;;;;;;;14.57;2.92;;;10.10;99.90;;;11.26;100.00;100062.59;5074956;28;20089;-77
2022/01/03 09:50:44;;;;;;;19.52;3.80;;;10.10;99.90;;;11.20;100.00;100060.50;5057270;28;20505;-79
2022/01/03 09:53:21;;;;;;;15.70;3.78;;;10.10;99.90;;;11.19;99.83;100075.66;5076178;28;20036;-77
2022/01/03 09:55:48;;;;;;;12.45;3.03;;;10.10;99.90;;;11.44;99.46;100074.03;5057140;28;20032;-80
2022/01/03 09:58:15;;;;;;;20.85;3.53;;;10.10;99.90;;;11.55;99.64;100066.63;5057278;28;20028;-79
2022/01/03 10:00:44;;;;;;;12.32;3.53;;;10.10;99.90;;;11.56;98.61;100063.41;5075200;28;20032;-79
2022/01/03 10:03:10;;;;;;;17.40;2.72;;;10.20;99.90;;;11.48;99.63;100066.50;5075171;28;20055;-77
2022/01/03 10:05:36;;;;;;;16.45;2.53;;;10.30;99.90;;;11.65;97.69;100063.94;5074445;28;20033;-79
2022/01/03 10:08:02;;;;;;;12.70;2.75;;;10.40;99.90;;;11.76;97.36;100064.13;5057619;28;20025;-80
2022/01/03 10:10:28;;;;;;;15.95;3.30;;;10.50;99.90;;;11.48;96.34;100047.75;5075619;28;20043;-80
2022/01/03 10:13:00;;;;;;;18.05;3.95;;;10.50;99.90;;;11.54;97.00;100049.03;5057582;28;20032;-81
2022/01/03 10:15:26;;;;;;;17.35;3.35;;;10.50;99.90;;;11.62;96.14;100044.34;5075357;28;20475;-79
2022/01/03 10:17:56;;;;;;;19.40;3.20;;;10.50;99.90;;;11.45;97.35;100054.09;5057193;28;20032;-77
2022/01/03 10:20:22;;;;;;;19.13;3.35;;;10.40;99.90;;;11.56;97.13;100069.00;5056681;28;20039;-79
2022/01/03 10:22:47;;;;;;;17.05;3.35;;;10.40;99.90;;;11.46;96.74;100063.28;5075060;28;20033;-79
2022/01/03 10:25:26;;;;;;;16.30;3.22;;;10.40;99.90;;;11.62;96.63;100047.13;5064463;28;20020;-79
2022/01/03 10:28:37;;;;;;;14.77;3.35;;;10.50;99.90;;;11.74;95.46;100032.13;5076357;28;20028;-78
2022/01/03 10:31:20;;;;;;;12.00;2.80;;;10.60;99.90;;;11.78;94.04;100031.00;5067660;28;20047;-79
2022/01/03 10:34:05;;;;;;;13.23;3.05;;;10.70;99.90;;;11.82;93.57;100026.22;5094199;28;20077;-81